Time;durP1;ratioP1;P1;durP2;ratioP2;P2;SDS_P1;SDS_P2;PMS_P1;PMS_P2;Temp;Humidity;BMP_temperature;BMP_pressure;BME280_temperature;BME280_humidity;BME280_pressure;Samples;Min_cycle;Max_cycle;Signal;HPM_P1;HPM_P2
2022/09/17 00:01:45;;;;;;;1.55;1.15;;;;;;;28.15;33.91;98763.84;5101878;28;20455;-59
2022/09/17 00:04:14;;;;;;;1.50;1.13;;;;;;;28.15;33.83;98765.88;5103248;28;20043;-65
2022/09/17 00:06:39;;;;;;;1.45;1.10;;;;;;;28.16;33.88;98767.44;5102473;28;20127;-65
2022/09/17 00:09:06;;;;;;;1.58;1.10;;;;;;;28.16;34.00;98773.06;5102820;28;20090;-64
2022/09/17 00:11:34;;;;;;;1.65;1.20;;;;;;;28.16;33.91;98773.06;5105813;28;20047;-59
2022/09/17 00:14:01;;;;;;;1.38;1.00;;;;;;;28.14;33.98;98767.88;5104320;28;20040;-59
2022/09/17 00:16:39;;;;;;;1.50;1.10;;;;;;;28.15;33.82;98771.50;5100333;28;20044;-64
2022/09/17 00:19:08;;;;;;;1.70;1.20;;;;;;;28.16;33.91;98767.44;5102562;28;20106;-59
2022/09/17 00:21:34;;;;;;;1.70;1.10;;;;;;;28.15;33.94;98769.47;5103234;28;20081;-64
2022/09/17 00:24:02;;;;;;;1.10;1.00;;;;;;;28.15;33.90;98777.13;5099660;28;20110;-59
2022/09/17 00:26:28;;;;;;;1.17;0.90;;;;;;;28.15;33.88;98777.91;5100201;28;20093;-59
2022/09/17 00:28:56;;;;;;;1.88;1.30;;;;;;;28.15;33.83;98779.94;5104614;28;20039;-59
2022/09/17 00:31:22;;;;;;;1.50;1.10;;;;;;;28.13;33.81;98777.53;5098753;28;20104;-60
2022/09/17 00:33:48;;;;;;;2.03;1.23;;;;;;;28.15;33.63;98791.19;5102130;28;20043;-64
2022/09/17 00:36:13;;;;;;;1.40;1.10;;;;;;;28.14;33.68;98786.75;5103444;28;20035;-64
2022/09/17 00:38:39;;;;;;;1.63;1.10;;;;;;;28.15;33.71;98782.75;5100819;28;20087;-59
2022/09/17 00:41:05;;;;;;;1.50;1.10;;;;;;;28.15;33.79;98780.72;5094975;28;20036;-64
2022/09/17 00:43:35;;;;;;;1.50;1.10;;;;;;;28.14;33.44;98778.31;5101707;28;20067;-59
2022/09/17 00:46:03;;;;;;;1.85;1.25;;;;;;;28.13;33.33;98800.03;5105630;28;20100;-60
2022/09/17 00:48:29;;;;;;;1.63;1.17;;;;;;;28.13;33.23;98788.00;5083617;28;20037;-65
2022/09/17 00:50:57;;;;;;;1.50;1.20;;;;;;;28.12;33.20;98806.88;5102559;28;20096;-59
2022/09/17 00:53:22;;;;;;;1.27;1.00;;;;;;;28.13;33.25;98799.25;5103379;28;20052;-59
2022/09/17 00:55:55;;;;;;;1.70;1.02;;;;;;;28.13;33.23;98813.28;5103619;28;20533;-59
2022/09/17 00:58:23;;;;;;;1.60;1.17;;;;;;;28.13;32.97;98813.28;5101743;28;20151;-59
2022/09/17 01:00:49;;;;;;;1.50;1.10;;;;;;;28.13;32.97;98804.88;5102176;28;20039;-61
2022/09/17 01:03:14;;;;;;;1.58;1.20;;;;;;;28.14;32.89;98812.06;5102961;28;20050;-59
2022/09/17 01:06:12;;;;;;;1.33;1.00;;;;;;;28.13;32.94;98824.53;5102444;28;20508;-59
2022/09/17 01:08:56;;;;;;;1.67;1.25;;;;;;;28.10;32.70;98836.69;5100208;28;20049;-65
2022/09/17 01:11:28;;;;;;;1.80;1.20;;;;;;;28.10;32.62;98837.47;5091246;28;20099;-59
2022/09/17 01:14:39;;;;;;;1.48;1.08;;;;;;;28.12;32.49;98837.03;5089530;28;20036;-59
2022/09/17 01:17:37;;;;;;;1.35;1.00;;;;;;;28.11;32.49;98841.06;5094875;28;20495;-64
2022/09/17 01:20:37;;;;;;;1.02;0.90;;;;;;;28.10;32.58;98845.13;5094375;28;20098;-59
2022/09/17 01:23:06;;;;;;;3.38;1.20;;;;;;;28.11;32.53;98838.25;5107631;28;20050;-59
2022/09/17 01:25:57;;;;;;;1.73;1.23;;;;;;;28.10;32.29;98854.34;5108089;28;20040;-65
2022/09/17 01:28:33;;;;;;;1.60;1.10;;;;;;;28.10;32.31;98847.94;5108037;28;20039;-59
2022/09/17 01:31:15;;;;;;;1.88;1.40;;;;;;;28.08;32.30;98847.59;5106203;28;20065;-60
2022/09/17 01:34:03;;;;;;;1.43;1.00;;;;;;;28.09;32.30;98849.16;5100786;28;20586;-59
2022/09/17 01:37:02;;;;;;;1.40;1.05;;;;;;;28.08;32.40;98850.41;5100806;28;20044;-65
2022/09/17 01:39:48;;;;;;;1.30;0.90;;;;;;;28.08;32.02;98853.22;5100160;28;20059;-59
2022/09/17 01:42:26;;;;;;;1.23;0.90;;;;;;;28.07;32.27;98838.34;5097243;28;20392;-64
2022/09/17 01:45:04;;;;;;;1.42;1.08;;;;;;;28.06;32.06;98848.00;5096994;28;20043;-64
2022/09/17 01:47:45;;;;;;;1.27;0.90;;;;;;;28.06;32.02;98847.22;5100840;28;20100;-59
2022/09/17 01:50:16;;;;;;;1.63;1.15;;;;;;;28.06;32.00;98844.41;5100568;28;20052;-65
2022/09/17 01:52:47;;;;;;;1.50;1.13;;;;;;;28.05;32.10;98848.44;5099243;28;20156;-65
2022/09/17 01:55:15;;;;;;;1.75;1.20;;;;;;;28.06;31.97;98856.44;5095015;28;20040;-59
2022/09/17 01:57:48;;;;;;;1.67;1.00;;;;;;;28.07;32.02;98871.28;5101110;28;20456;-59
2022/09/17 02:00:16;;;;;;;1.63;1.10;;;;;;;28.06;32.01;98878.94;5099841;28;20044;-63
2022/09/17 02:03:06;;;;;;;1.70;1.17;;;;;;;28.06;31.94;98884.56;5096119;28;20052;-60
2022/09/17 02:05:47;;;;;;;1.20;0.90;;;;;;;28.06;31.87;98880.94;5102314;28;20048;-59
2022/09/17 02:08:15;;;;;;;1.65;1.10;;;;;;;28.06;31.88;98883.75;5094954;28;20067;-59
2022/09/17 02:11:00;;;;;;;1.38;1.00;;;;;;;28.04;31.85;98874.97;5099448;28;20070;-64
2022/09/17 02:13:47;;;;;;;1.33;1.00;;;;;;;28.05;31.86;98876.56;5093574;28;20071;-59
2022/09/17 02:16:23;;;;;;;1.20;0.90;;;;;;;28.04;31.83;98884.22;5098935;28;20044;-59
2022/09/17 02:18:59;;;;;;;1.70;1.10;;;;;;;28.03;31.78;98885.44;5097231;28;20060;-65
2022/09/17 02:21:31;;;;;;;1.50;1.02;;;;;;;28.05;31.69;98887.81;5102034;28;20043;-64
2022/09/17 02:24:03;;;;;;;1.00;0.90;;;;;;;28.05;31.90;98887.81;5094922;28;20035;-64
2022/09/17 02:26:29;;;;;;;3.15;1.10;;;;;;;28.02;31.72;98878.25;5095079;28;20032;-65
2022/09/17 02:29:01;;;;;;;1.58;1.02;;;;;;;28.03;31.77;98890.28;5100596;28;20189;-65
2022/09/17 02:31:26;;;;;;;1.30;1.00;;;;;;;28.03;31.78;98891.06;5088648;28;20048;-64
2022/09/17 02:34:00;;;;;;;1.17;0.82;;;;;;;28.03;31.72;98899.50;5106855;28;20070;-59
2022/09/17 02:36:26;;;;;;;1.13;0.80;;;;;;;28.04;31.85;98901.06;5104202;28;20518;-59
2022/09/17 02:39:00;;;;;;;1.10;0.90;;;;;;;28.02;31.64;98894.31;5105749;28;20051;-59
2022/09/17 02:41:35;;;;;;;1.10;0.85;;;;;;;28.02;31.69;98894.31;5105313;28;20258;-59
2022/09/17 02:44:17;;;;;;;1.20;0.90;;;;;;;28.02;31.51;98888.69;5106061;28;20039;-59
2022/09/17 02:47:11;;;;;;;1.60;1.00;;;;;;;28.01;31.77;98879.47;5106168;28;20044;-65
2022/09/17 02:50:13;;;;;;;1.08;0.82;;;;;;;27.98;31.49;98883.94;5076731;28;20097;-59
2022/09/17 02:52:55;;;;;;;1.33;0.98;;;;;;;28.00;31.42;98885.50;5098478;28;20048;-60
2022/09/17 02:55:50;;;;;;;1.20;0.90;;;;;;;27.99;31.52;98895.97;5101296;28;20043;-59
2022/09/17 02:58:31;;;;;;;1.13;0.88;;;;;;;28.00;31.23;98905.97;5107923;28;20048;-65
2022/09/17 03:01:03;;;;;;;1.10;0.80;;;;;;;27.98;31.56;98909.22;5108080;28;20422;-59
2022/09/17 03:03:35;;;;;;;1.60;1.10;;;;;;;27.98;31.43;98902.81;5105538;28;20116;-60
2022/09/17 03:06:01;;;;;;;1.15;0.90;;;;;;;28.00;31.31;98913.63;5105391;28;20039;-59
2022/09/17 03:08:39;;;;;;;1.50;1.00;;;;;;;27.97;31.25;98899.22;5103633;28;20078;-65
2022/09/17 03:11:07;;;;;;;1.10;0.85;;;;;;;27.94;31.08;98897.28;5092238;28;20605;-59
2022/09/17 03:13:34;;;;;;;1.65;1.10;;;;;;;27.98;31.19;98909.22;5108484;28;20503;-60
2022/09/17 03:16:01;;;;;;;1.13;0.80;;;;;;;27.96;31.11;98897.63;5103140;28;20566;-65
2022/09/17 03:18:27;;;;;;;2.83;0.95;;;;;;;27.98;31.16;98902.81;5100387;28;20040;-65
2022/09/17 03:20:52;;;;;;;1.42;1.00;;;;;;;27.96;30.91;98903.25;5098760;28;20050;-65
2022/09/17 03:23:17;;;;;;;1.15;0.98;;;;;;;27.96;30.95;98906.06;5098837;28;20092;-63
2022/09/17 03:25:44;;;;;;;1.13;0.93;;;;;;;27.95;30.94;98898.88;5102677;28;20044;-64
2022/09/17 03:28:10;;;;;;;1.48;1.00;;;;;;;27.98;30.79;98905.63;5104082;28;20319;-59
2022/09/17 03:30:35;;;;;;;1.35;0.90;;;;;;;27.96;30.76;98897.63;5103647;28;20337;-59
2022/09/17 03:33:01;;;;;;;1.15;0.90;;;;;;;27.96;30.69;98891.22;5102034;28;20229;-59
2022/09/17 03:35:26;;;;;;;1.40;1.15;;;;;;;27.96;30.78;98900.44;5101882;28;20043;-65
2022/09/17 03:37:51;;;;;;;1.40;1.10;;;;;;;27.97;30.78;98904.84;5100688;28;20477;-64
2022/09/17 03:40:17;;;;;;;1.70;1.00;;;;;;;27.94;30.68;98905.72;5101145;28;20134;-59
2022/09/17 03:42:43;;;;;;;1.15;0.90;;;;;;;27.91;30.73;98908.59;5104739;28;20039;-60
2022/09/17 03:45:09;;;;;;;1.60;1.10;;;;;;;27.95;30.58;98920.56;5106109;28;20052;-59
2022/09/17 03:47:35;;;;;;;1.10;0.90;;;;;;;27.94;30.29;98916.97;5099340;28;20044;-65
2022/09/17 03:50:00;;;;;;;1.63;1.10;;;;;;;27.97;30.43;98929.34;5099345;28;20054;-64
2022/09/17 03:52:25;;;;;;;1.00;0.80;;;;;;;27.94;30.83;98922.59;5097900;28;20075;-59
2022/09/17 03:54:51;;;;;;;1.40;0.90;;;;;;;27.93;30.39;98926.63;5099100;28;20046;-59
2022/09/17 03:57:16;;;;;;;1.20;0.90;;;;;;;27.93;30.57;98928.63;5099351;28;20039;-60
2022/09/17 03:59:41;;;;;;;1.08;0.88;;;;;;;27.93;30.38;98935.06;5100698;28;20129;-64
2022/09/17 04:02:07;;;;;;;1.30;0.90;;;;;;;27.92;30.38;98925.03;5081994;28;20535;-63
2022/09/17 04:04:33;;;;;;;1.27;0.90;;;;;;;27.94;30.38;98931.03;5100065;28;20105;-65
2022/09/17 04:06:58;;;;;;;1.95;1.00;;;;;;;27.91;30.21;98923.44;5098860;28;20059;-60
2022/09/17 04:09:23;;;;;;;1.58;1.00;;;;;;;27.93;30.22;98926.63;5097767;28;20503;-63
2022/09/17 04:11:49;;;;;;;1.52;1.00;;;;;;;27.93;30.27;98931.44;5100586;28;20047;-64
2022/09/17 04:14:14;;;;;;;1.20;0.90;;;;;;;27.94;30.24;98933.03;5097133;28;20532;-64
2022/09/17 04:16:39;;;;;;;1.05;0.80;;;;;;;27.93;30.29;98931.44;5101491;28;20044;-63
2022/09/17 04:19:05;;;;;;;0.98;0.80;;;;;;;27.92;29.99;98919.41;5101471;28;20040;-60
2022/09/17 04:21:30;;;;;;;1.20;0.90;;;;;;;27.91;30.21;98926.25;5102452;28;20082;-59
2022/09/17 04:23:56;;;;;;;1.15;0.90;;;;;;;27.92;30.13;98930.66;5100738;28;20430;-64
2022/09/17 04:26:21;;;;;;;1.10;0.80;;;;;;;27.92;30.11;98927.84;5099632;28;20110;-64
2022/09/17 04:28:47;;;;;;;1.27;0.80;;;;;;;27.91;30.36;98929.06;5101213;28;20043;-59
2022/09/17 04:31:12;;;;;;;1.63;0.90;;;;;;;27.92;30.07;98935.47;5100418;28;20526;-59
2022/09/17 04:33:37;;;;;;;1.08;0.80;;;;;;;27.90;30.40;98926.69;5099343;28;20042;-64
2022/09/17 04:36:03;;;;;;;0.88;0.77;;;;;;;27.91;30.13;98933.91;5101848;28;20043;-64
2022/09/17 04:38:28;;;;;;;0.85;0.70;;;;;;;27.91;30.19;98945.16;5098217;28;20051;-59
2022/09/17 04:40:56;;;;;;;1.10;0.80;;;;;;;27.90;30.07;98952.00;5099961;28;20424;-59
2022/09/17 04:43:21;;;;;;;1.00;0.80;;;;;;;27.91;29.96;98945.94;5097765;28;20151;-60
2022/09/17 04:45:47;;;;;;;1.48;0.90;;;;;;;27.90;29.88;98964.03;5100601;28;20055;-59
2022/09/17 04:48:13;;;;;;;1.20;0.90;;;;;;;27.90;29.94;98961.22;5099822;28;20162;-63
2022/09/17 04:50:38;;;;;;;1.10;0.90;;;;;;;27.90;30.04;98960.44;5094846;28;20115;-59
2022/09/17 04:53:04;;;;;;;1.23;0.82;;;;;;;27.90;29.90;98960.44;5097888;28;20036;-63
2022/09/17 04:55:30;;;;;;;1.05;0.80;;;;;;;27.89;29.93;98964.47;5097765;28;20419;-64
2022/09/17 04:57:55;;;;;;;0.90;0.80;;;;;;;27.90;29.96;98966.84;5099866;28;20491;-59
2022/09/17 05:00:22;;;;;;;0.88;0.77;;;;;;;27.89;29.87;98964.47;5099257;28;20082;-59
2022/09/17 05:02:51;;;;;;;1.30;0.90;;;;;;;27.89;29.71;98970.88;5100772;28;20401;-64
2022/09/17 05:05:17;;;;;;;1.17;0.90;;;;;;;27.89;29.76;98976.50;5098513;28;20043;-64
2022/09/17 05:07:43;;;;;;;1.30;0.88;;;;;;;27.90;29.79;98980.09;5098170;28;20046;-64
2022/09/17 05:10:10;;;;;;;1.05;0.90;;;;;;;27.89;29.87;98987.75;5097097;28;20039;-64
2022/09/17 05:12:36;;;;;;;1.23;0.90;;;;;;;27.89;29.70;98982.13;5089531;28;20522;-59
2022/09/17 05:15:02;;;;;;;1.27;0.98;;;;;;;27.89;29.66;98981.34;5103336;28;20531;-60
2022/09/17 05:17:27;;;;;;;1.10;0.80;;;;;;;27.89;29.56;98982.13;5100224;28;20035;-63
2022/09/17 05:19:52;;;;;;;1.23;0.90;;;;;;;27.89;29.76;98987.75;5096038;28;20090;-60
2022/09/17 05:22:18;;;;;;;1.02;0.75;;;;;;;27.87;29.61;98984.59;5099015;28;20583;-59
2022/09/17 05:24:44;;;;;;;1.35;0.95;;;;;;;27.87;29.54;98984.59;5099764;28;20042;-59
2022/09/17 05:27:09;;;;;;;0.90;0.80;;;;;;;27.87;29.45;98993.03;5102789;28;20032;-64
2022/09/17 05:29:35;;;;;;;1.20;0.77;;;;;;;27.88;29.62;98991.78;5104526;28;20039;-59
2022/09/17 05:32:02;;;;;;;1.02;0.82;;;;;;;27.87;29.44;98990.22;5101012;28;20059;-64
2022/09/17 05:34:27;;;;;;;0.77;0.70;;;;;;;27.87;29.53;98992.22;5098960;28;21313;-63
2022/09/17 05:36:53;;;;;;;0.98;0.70;;;;;;;27.87;29.72;99004.25;5102032;28;20040;-59
2022/09/17 05:39:21;;;;;;;1.00;0.80;;;;;;;27.86;29.71;99002.69;5082119;28;20040;-59
2022/09/17 05:41:47;;;;;;;1.00;0.77;;;;;;;27.84;29.40;98999.50;5099999;28;20564;-63
2022/09/17 05:44:12;;;;;;;0.80;0.60;;;;;;;27.86;29.49;99004.66;5098922;28;20047;-63
2022/09/17 05:46:37;;;;;;;0.82;0.70;;;;;;;27.83;29.58;98999.94;5100826;28;20150;-63
2022/09/17 05:49:03;;;;;;;0.80;0.60;;;;;;;27.85;29.53;99008.72;5099882;28;20534;-59
2022/09/17 05:51:29;;;;;;;0.90;0.70;;;;;;;27.84;29.62;99012.75;5099257;28;20123;-59
2022/09/17 05:53:55;;;;;;;1.08;0.80;;;;;;;27.86;29.48;99019.56;5086117;28;20048;-63
2022/09/17 05:56:20;;;;;;;0.90;0.80;;;;;;;27.87;29.48;99023.94;5097915;28;20518;-60
2022/09/17 05:58:46;;;;;;;0.77;0.70;;;;;;;27.87;29.41;99023.94;5097043;28;20044;-59
2022/09/17 06:01:15;;;;;;;1.52;1.00;;;;;;;27.86;29.45;99025.16;5098963;28;20051;-59
2022/09/17 06:03:41;;;;;;;1.15;0.93;;;;;;;27.78;29.53;99025.72;5099642;28;20150;-59
2022/09/17 06:06:06;;;;;;;1.17;0.90;;;;;;;27.68;29.85;99033.16;5095562;28;20098;-59
2022/09/17 06:08:35;;;;;;;1.35;0.88;;;;;;;27.61;29.84;99028.44;5100910;28;20178;-59
2022/09/17 06:11:07;;;;;;;1.25;0.90;;;;;;;27.52;29.86;99033.03;5102832;28;20668;-63
2022/09/17 06:13:34;;;;;;;1.13;0.80;;;;;;;27.46;30.19;99048.78;5104504;28;20050;-64
2022/09/17 06:16:00;;;;;;;1.20;0.98;;;;;;;27.39;30.17;99036.47;5103502;28;20067;-59
2022/09/17 06:18:27;;;;;;;1.08;0.80;;;;;;;27.35;30.32;99046.16;5101809;28;20051;-59
2022/09/17 06:20:58;;;;;;;1.55;1.05;;;;;;;27.30;30.32;99046.69;5097576;28;20071;-59
2022/09/17 06:23:24;;;;;;;1.20;0.90;;;;;;;27.25;30.50;99047.16;5099263;28;20044;-60
2022/09/17 06:25:54;;;;;;;1.08;0.82;;;;;;;27.22;30.40;99034.78;5102159;28;20089;-63
2022/09/17 06:28:20;;;;;;;1.10;0.90;;;;;;;27.23;30.72;99058.03;5101358;28;20097;-63
2022/09/17 06:30:46;;;;;;;1.40;0.95;;;;;;;27.22;30.70;99056.41;5100384;28;20389;-63
2022/09/17 06:33:11;;;;;;;1.10;0.90;;;;;;;27.21;30.74;99055.63;5100184;28;20568;-64
2022/09/17 06:35:37;;;;;;;1.35;1.00;;;;;;;27.20;30.57;99054.03;5103805;28;20044;-64
2022/09/17 06:38:05;;;;;;;0.93;0.73;;;;;;;27.20;30.46;99054.03;5100061;28;20531;-58
2022/09/17 06:40:31;;;;;;;1.20;0.80;;;;;;;27.20;30.34;99054.03;5099958;28;20039;-59
2022/09/17 06:42:58;;;;;;;1.40;0.90;;;;;;;27.16;30.64;99053.34;5102914;28;20047;-65
2022/09/17 06:45:24;;;;;;;0.90;0.70;;;;;;;27.12;30.44;99044.16;5099656;28;20127;-58
2022/09/17 06:47:49;;;;;;;0.80;0.70;;;;;;;27.14;30.87;99050.13;5103191;28;20138;-64
2022/09/17 06:50:15;;;;;;;0.70;0.70;;;;;;;27.15;30.69;99051.75;5094645;28;20444;-65
2022/09/17 06:52:53;;;;;;;0.98;0.70;;;;;;;27.17;30.77;99052.09;5099496;28;20645;-59
2022/09/17 06:55:19;;;;;;;0.60;0.55;;;;;;;27.19;30.62;99044.03;5099260;28;20043;-64
2022/09/17 06:57:45;;;;;;;0.77;0.65;;;;;;;27.20;30.49;99042.81;5099752;28;20376;-58
2022/09/17 07:00:11;;;;;;;0.73;0.60;;;;;;;27.19;30.44;99046.84;5101634;28;20044;-64
2022/09/17 07:02:37;;;;;;;0.63;0.60;;;;;;;27.18;30.64;99053.69;5104352;28;20042;-64
2022/09/17 07:05:04;;;;;;;0.82;0.60;;;;;;;27.17;30.61;99042.91;5098604;28;20036;-58
2022/09/17 07:07:30;;;;;;;0.55;0.50;;;;;;;27.15;30.85;99046.94;5098202;28;20042;-58
2022/09/17 07:09:55;;;;;;;0.50;0.50;;;;;;;27.17;30.85;99040.09;5096695;28;20036;-59
2022/09/17 07:12:21;;;;;;;0.50;0.50;;;;;;;27.20;30.63;99048.44;5102475;28;20042;-64
2022/09/17 07:14:49;;;;;;;0.68;0.50;;;;;;;27.15;30.80;99049.72;5100555;28;20492;-58
2022/09/17 07:17:15;;;;;;;0.40;0.40;;;;;;;27.15;30.58;99046.13;5096850;28;20052;-64
2022/09/17 07:19:40;;;;;;;0.47;0.45;;;;;;;27.13;30.71;99048.56;5102718;28;20511;-64
2022/09/17 07:22:06;;;;;;;0.40;0.40;;;;;;;27.12;30.51;99052.59;5105431;28;20047;-58
2022/09/17 07:24:32;;;;;;;0.40;0.40;;;;;;;27.11;30.59;99053.81;5105360;28;20059;-59
2022/09/17 07:26:57;;;;;;;0.55;0.40;;;;;;;27.12;30.58;99046.97;5102424;28;20040;-64
2022/09/17 07:29:26;;;;;;;0.57;0.50;;;;;;;27.10;30.38;99043.81;5105679;28;20039;-59
2022/09/17 07:31:54;;;;;;;0.38;0.38;;;;;;;27.08;30.59;99043.44;5102881;28;20130;-59
2022/09/17 07:34:20;;;;;;;0.30;0.30;;;;;;;27.08;30.68;99049.84;5106878;28;20070;-64
2022/09/17 07:36:45;;;;;;;0.30;0.30;;;;;;;27.09;30.58;99045.03;5102015;28;20075;-59
2022/09/17 07:39:12;;;;;;;0.20;0.20;;;;;;;27.10;30.38;99046.63;5102326;28;20051;-58
2022/09/17 07:41:40;;;;;;;0.50;0.40;;;;;;;27.08;30.12;99044.25;5095488;28;20055;-64
2022/09/17 07:44:06;;;;;;;0.32;0.28;;;;;;;27.07;30.37;99041.84;5100032;28;20035;-58
2022/09/17 07:46:32;;;;;;;0.28;0.28;;;;;;;27.07;30.31;99044.66;5105097;28;20031;-64
2022/09/17 07:48:58;;;;;;;0.50;0.40;;;;;;;27.05;30.46;99050.69;5097319;28;20063;-64
2022/09/17 07:51:27;;;;;;;0.30;0.30;;;;;;;27.04;30.30;99039.88;5096510;28;20449;-58
2022/09/17 07:53:54;;;;;;;0.30;0.30;;;;;;;27.06;30.11;99040.25;5103428;28;20035;-58
2022/09/17 07:56:21;;;;;;;0.28;0.20;;;;;;;27.04;30.13;99034.25;5098003;28;20040;-58
2022/09/17 07:58:46;;;;;;;0.20;0.20;;;;;;;27.04;30.28;99039.88;5102157;28;20058;-64
2022/09/17 08:01:15;;;;;;;0.20;0.20;;;;;;;27.02;30.25;99037.50;5095501;28;20036;-64
2022/09/17 08:03:42;;;;;;;0.35;0.35;;;;;;;27.03;30.32;99032.66;5100953;28;20051;-64
2022/09/17 08:06:13;;;;;;;0.25;0.25;;;;;;;27.04;29.92;99026.66;5095186;28;20549;-64
2022/09/17 08:08:39;;;;;;;0.40;0.30;;;;;;;27.05;29.88;99025.44;5107754;28;20558;-58
2022/09/17 08:11:06;;;;;;;0.20;0.20;;;;;;;27.04;29.89;99028.63;5102435;28;20056;-64
2022/09/17 08:13:32;;;;;;;0.45;0.32;;;;;;;27.03;30.00;99027.06;5096813;28;20066;-64
2022/09/17 08:16:06;;;;;;;0.20;0.20;;;;;;;27.01;30.17;99035.13;5097066;28;20052;-64
2022/09/17 08:18:32;;;;;;;0.30;0.30;;;;;;;27.02;29.94;99037.50;5100797;28;20082;-64
2022/09/17 08:20:59;;;;;;;0.20;0.20;;;;;;;27.00;29.80;99047.53;5100725;28;20040;-64
2022/09/17 08:23:25;;;;;;;0.20;0.20;;;;;;;27.00;30.24;99053.16;5097735;28;20429;-64
2022/09/17 08:25:55;;;;;;;0.20;0.20;;;;;;;27.01;30.00;99057.56;5094961;28;20112;-58
2022/09/17 08:28:23;;;;;;;0.20;0.20;;;;;;;27.02;29.94;99056.34;5099967;28;20384;-64
2022/09/17 08:30:49;;;;;;;0.20;0.20;;;;;;;27.02;29.84;99065.56;5101107;28;20121;-64
2022/09/17 08:33:15;;;;;;;0.20;0.20;;;;;;;27.02;29.74;99070.38;5096858;28;20043;-58
2022/09/17 08:35:40;;;;;;;0.15;0.15;;;;;;;27.03;29.70;99071.97;5093758;28;20479;-58
2022/09/17 08:38:06;;;;;;;0.13;0.13;;;;;;;27.00;30.03;99067.97;5099949;28;20043;-64
2022/09/17 08:40:41;;;;;;;0.40;0.30;;;;;;;27.02;29.95;99064.78;5100743;28;20145;-63
2022/09/17 08:43:15;;;;;;;0.38;0.28;;;;;;;26.99;29.71;99062.78;5104390;28;20062;-64
2022/09/17 08:45:40;;;;;;;0.20;0.20;;;;;;;27.02;29.64;99071.19;5105633;28;20109;-64
2022/09/17 08:48:13;;;;;;;0.32;0.30;;;;;;;27.01;29.94;99063.19;5102751;28;20071;-64
2022/09/17 08:50:40;;;;;;;;;;;;;;;27.05;29.43;99070.34;5100645;28;20469;-60
2022/09/17 08:53:41;;;;;;;0.17;0.17;;;;;;;27.01;29.62;99058.38;5100724;28;19930;-58
2022/09/17 08:56:14;;;;;;;0.30;0.30;;;;;;;26.99;29.63;99060.00;5100765;28;20040;-58
2022/09/17 08:59:10;;;;;;;0.75;0.20;;;;;;;26.98;29.61;99066.81;5100289;28;20155;-64
2022/09/17 09:01:42;;;;;;;0.15;0.15;;;;;;;26.97;29.84;99062.44;5098338;28;20609;-58
2022/09/17 09:04:32;;;;;;;0.28;0.28;;;;;;;26.97;29.41;99059.63;5098207;28;20044;-63
2022/09/17 09:07:05;;;;;;;0.20;0.20;;;;;;;26.98;29.35;99061.22;5096288;28;20488;-58
2022/09/17 09:09:40;;;;;;;0.30;0.20;;;;;;;26.95;29.58;99054.44;5098905;28;20044;-64
2022/09/17 09:12:14;;;;;;;0.22;0.20;;;;;;;26.96;29.48;99058.84;5099095;28;20043;-64
2022/09/17 09:14:50;;;;;;;0.30;0.28;;;;;;;26.91;29.48;99064.13;5098925;28;20049;-64
2022/09/17 09:17:20;;;;;;;0.17;0.10;;;;;;;26.93;29.44;99061.69;5096990;28;20562;-58
2022/09/17 09:19:46;;;;;;;0.40;0.13;;;;;;;26.89;29.49;99056.94;5094051;28;20055;-64
2022/09/17 09:22:33;;;;;;;0.15;0.15;;;;;;;26.93;29.74;99062.47;5097749;28;20066;-58
2022/09/17 09:25:11;;;;;;;0.10;0.10;;;;;;;26.95;29.65;99062.06;5093470;28;20427;-58
2022/09/17 09:28:01;;;;;;;0.20;0.20;;;;;;;26.92;29.45;99057.28;5099675;28;20554;-64
2022/09/17 09:30:37;;;;;;;0.20;0.13;;;;;;;26.94;29.31;99058.47;5097542;28;20073;-58
2022/09/17 09:33:09;;;;;;;0.20;0.20;;;;;;;26.91;29.48;99047.28;5096895;28;20043;-58
2022/09/17 09:35:40;;;;;;;0.20;0.20;;;;;;;26.92;29.36;99048.88;5097069;28;20038;-58
2022/09/17 09:38:08;;;;;;;0.10;0.10;;;;;;;26.95;29.46;99042.44;5098532;28;20043;-64
2022/09/17 09:41:08;;;;;;;0.10;0.10;;;;;;;26.90;29.49;99038.09;5098185;28;20047;-64
2022/09/17 09:43:37;;;;;;;0.20;0.20;;;;;;;26.91;29.13;99036.06;5102953;28;20134;-64
2022/09/17 09:46:12;;;;;;;0.15;0.15;;;;;;;26.89;29.34;99037.28;5105251;28;20088;-64
2022/09/17 09:49:03;;;;;;;0.20;0.20;;;;;;;26.88;29.26;99038.50;5101261;28;20052;-64
2022/09/17 09:51:29;;;;;;;0.22;0.17;;;;;;;26.90;29.12;99035.28;5103210;28;20681;-58
2022/09/17 09:54:13;;;;;;;0.20;0.20;;;;;;;26.87;29.19;99034.13;5105357;28;20123;-58
2022/09/17 09:56:54;;;;;;;0.13;0.13;;;;;;;26.89;29.33;99030.88;5106396;28;20481;-58
2022/09/17 09:59:20;;;;;;;0.20;0.20;;;;;;;26.89;29.26;99025.28;5105170;28;20510;-58
2022/09/17 10:01:45;;;;;;;0.28;0.28;;;;;;;26.89;29.09;99037.28;5103327;28;20060;-64
2022/09/17 10:04:18;;;;;;;0.10;0.10;;;;;;;26.88;28.99;99032.91;5104265;28;20607;-64
2022/09/17 10:06:46;;;;;;;0.22;0.20;;;;;;;26.89;29.25;99028.88;5093797;28;20039;-58
2022/09/17 10:09:13;;;;;;;0.20;0.20;;;;;;;26.87;29.31;99017.28;5101923;28;20531;-64
2022/09/17 10:11:38;;;;;;;0.32;0.30;;;;;;;26.87;28.99;99010.88;5102012;28;20096;-58
2022/09/17 10:14:24;;;;;;;0.10;0.10;;;;;;;26.86;28.86;99014.88;5100873;28;20047;-58
2022/09/17 10:17:14;;;;;;;0.20;0.20;;;;;;;26.86;29.20;99015.69;5102837;28;20079;-58
2022/09/17 10:19:41;;;;;;;0.20;0.20;;;;;;;26.90;28.60;99015.63;5098274;28;20066;-58
2022/09/17 10:22:28;;;;;;;0.10;0.10;;;;;;;26.89;28.99;99022.47;5102561;28;20525;-64
2022/09/17 10:24:55;;;;;;;0.40;0.20;;;;;;;26.87;28.88;99011.66;5098119;28;20036;-64
2022/09/17 10:27:23;;;;;;;0.10;0.10;;;;;;;26.86;28.92;99015.69;5101430;28;20245;-59
2022/09/17 10:30:16;;;;;;;0.20;0.20;;;;;;;26.85;28.73;99036.53;5101602;28;20047;-58
2022/09/17 10:32:41;;;;;;;0.10;0.10;;;;;;;26.85;28.60;99028.13;5093465;28;20044;-58
2022/09/17 10:35:17;;;;;;;0.20;0.20;;;;;;;26.86;28.95;99026.94;5098335;28;20047;-58
2022/09/17 10:37:50;;;;;;;0.20;0.20;;;;;;;26.86;28.80;99028.91;5100882;28;20032;-58
2022/09/17 10:40:18;;;;;;;0.30;0.25;;;;;;;26.86;29.01;99032.53;5100581;28;20605;-58
2022/09/17 10:43:15;;;;;;;0.30;0.20;;;;;;;26.90;28.87;99024.06;5102716;28;20126;-64
2022/09/17 10:45:43;;;;;;;0.30;0.30;;;;;;;26.91;28.81;99036.06;5100067;28;20047;-64
2022/09/17 10:48:19;;;;;;;0.20;0.20;;;;;;;26.89;28.63;99026.06;5102100;28;20154;-58
2022/09/17 10:50:51;;;;;;;0.20;0.20;;;;;;;26.86;28.86;99020.50;5098914;28;20044;-64
2022/09/17 10:53:18;;;;;;;0.27;0.13;;;;;;;26.88;28.51;99024.47;5096714;28;20069;-64
2022/09/17 10:55:49;;;;;;;0.10;0.10;;;;;;;26.93;28.95;99039.22;5103761;28;20040;-64
2022/09/17 10:58:14;;;;;;;0.20;0.20;;;;;;;26.95;28.88;99048.84;5102679;28;20048;-64
2022/09/17 11:01:14;;;;;;;0.20;0.20;;;;;;;26.98;28.75;99038.75;5104050;28;20050;-64
2022/09/17 11:04:17;;;;;;;0.10;0.10;;;;;;;26.96;28.46;99038.41;4995048;28;20368;-58
2022/09/17 11:07:00;;;;;;;0.15;0.15;;;;;;;26.98;28.67;99033.16;4990594;28;20058;-64
2022/09/17 11:10:04;;;;;;;0.20;0.20;;;;;;;27.00;28.54;99036.31;4997765;28;20088;-64
2022/09/17 11:12:53;;;;;;;0.10;0.10;;;;;;;27.01;28.28;99054.75;4993998;28;20070;-64
2022/09/17 11:15:21;;;;;;;0.20;0.20;;;;;;;27.00;28.50;99042.72;4982895;28;20089;-64
2022/09/17 11:18:03;;;;;;;0.17;0.17;;;;;;;27.02;28.59;99036.69;4985670;28;20050;-64
2022/09/17 11:20:34;;;;;;;0.47;0.30;;;;;;;27.05;28.49;99033.06;4985865;28;20060;-64
2022/09/17 11:23:21;;;;;;;0.20;0.20;;;;;;;27.02;28.34;99039.50;4986436;28;20062;-58
2022/09/17 11:26:03;;;;;;;0.20;0.20;;;;;;;27.04;28.69;99039.88;4993552;28;20809;-58
2022/09/17 11:28:56;;;;;;;0.32;0.20;;;;;;;27.06;28.53;99054.28;4985763;28;20050;-64
2022/09/17 11:31:25;;;;;;;0.45;0.10;;;;;;;27.07;28.56;99044.66;4982343;28;20056;-64
2022/09/17 11:33:56;;;;;;;0.40;0.20;;;;;;;27.05;28.65;99036.66;4984885;28;20058;-64
2022/09/17 11:36:54;;;;;;;0.20;0.20;;;;;;;27.05;28.46;99052.72;4988507;28;20481;-64
2022/09/17 11:39:32;;;;;;;0.10;0.10;;;;;;;27.07;28.61;99042.63;5003006;28;20047;-58
2022/09/17 11:42:02;;;;;;;0.85;0.25;;;;;;;27.09;28.58;99059.06;5100641;28;20130;-58
2022/09/17 11:44:37;;;;;;;0.30;0.20;;;;;;;27.09;28.63;99042.22;5089417;28;20047;-63
2022/09/17 11:47:21;;;;;;;0.22;0.10;;;;;;;27.12;28.84;99053.38;5096294;28;20055;-64
2022/09/17 11:49:56;;;;;;;2.33;0.25;;;;;;;27.13;28.63;99048.56;5099185;28;20072;-64
2022/09/17 11:52:40;;;;;;;0.15;0.15;;;;;;;27.14;28.94;99062.16;5094964;28;20204;-70
2022/09/17 11:55:17;;;;;;;8.40;2.17;;;;;;;27.10;27.29;99050.22;5096476;28;20114;-64